Almont Township, Michigan
Current Conditions -  °F | °C
As of 10:53 PM on Thursday 18 Dec 2014 (Local Time) from KD95 Reporting Station
Overcast Overcast  
Wind Chill: 17°   Ceiling: 1000
Heat Index: 25°   Visibility: 10mi
Dew Point: 22°   Wind: 7mph
Humidity: 89%   Direction: 350°N
Pressure: 30.2"   Gusts: NA
Location:  42.9337°N, 83.0375°W
Report Text: KD95 190353Z AUTO 35006KT 10SM OVC010 M04/M05 A3020 RMK AO2 T10381053
Loading
Personal Weather Stations






























Interactive Weather Map New forecast layout! Learn more

10-Day Weather Forecast

Advertisements
Track Severe Weather on mobile